createdAt,value
2019-02-09T00:00:13.281Z,4.37
2019-02-09T00:02:41.812Z,3.70
2019-02-09T00:05:10.342Z,4.63
2019-02-09T00:07:38.933Z,4.20
2019-02-09T00:10:07.745Z,4.17
2019-02-09T00:12:36.283Z,4.13
2019-02-09T00:15:05.453Z,3.97
2019-02-09T00:17:33.997Z,4.90
2019-02-09T00:20:02.796Z,3.60
2019-02-09T00:22:31.321Z,3.67
2019-02-09T00:24:59.852Z,3.47
2019-02-09T00:27:28.422Z,3.80
2019-02-09T00:29:56.966Z,3.53
2019-02-09T00:32:25.497Z,3.70
2019-02-09T00:34:54.040Z,2.90
2019-02-09T00:37:22.593Z,3.37
2019-02-09T00:39:51.122Z,3.37
2019-02-09T00:42:19.697Z,3.10
2019-02-09T00:44:48.223Z,3.00
2019-02-09T00:47:16.753Z,3.50
2019-02-09T00:49:45.335Z,3.40
2019-02-09T00:52:13.865Z,3.13
2019-02-09T00:54:42.413Z,3.50
2019-02-09T00:57:10.957Z,3.23
2019-02-09T00:59:39.510Z,3.27
2019-02-09T01:02:08.109Z,3.40
2019-02-09T01:04:36.651Z,3.40
2019-02-09T01:07:05.566Z,3.10
2019-02-09T01:09:34.166Z,3.77
2019-02-09T01:12:02.768Z,2.90
2019-02-09T01:14:31.669Z,3.20
2019-02-09T01:17:00.222Z,3.17
2019-02-09T01:19:28.774Z,3.20
2019-02-09T01:21:57.309Z,2.77
2019-02-09T01:24:25.855Z,3.27
2019-02-09T01:26:54.379Z,3.20
2019-02-09T01:29:22.997Z,2.90
2019-02-09T01:31:51.561Z,2.70
2019-02-09T01:34:20.098Z,3.27
2019-02-09T01:36:48.622Z,2.80
2019-02-09T01:39:17.206Z,3.27
2019-02-09T01:41:45.797Z,3.33
2019-02-09T01:44:14.340Z,3.07
2019-02-09T01:46:42.913Z,3.40
2019-02-09T01:49:11.446Z,3.57
2019-02-09T01:51:39.996Z,3.33
2019-02-09T01:54:08.606Z,2.90
2019-02-09T01:56:37.132Z,3.27
2019-02-09T01:59:05.703Z,3.07
2019-02-09T02:01:34.234Z,2.97
2019-02-09T02:04:02.762Z,2.70
2019-02-09T02:06:31.302Z,3.27
2019-02-09T02:08:59.827Z,3.03
2019-02-09T02:11:28.377Z,3.13
2019-02-09T02:13:56.921Z,3.20
2019-02-09T02:16:25.539Z,3.27
2019-02-09T02:18:54.222Z,3.03
2019-02-09T02:21:22.819Z,3.67
2019-02-09T02:23:51.836Z,3.07
2019-02-09T02:26:20.498Z,3.50
2019-02-09T02:28:49.121Z,3.20
2019-02-09T02:31:19.779Z,3.50
2019-02-09T02:33:48.477Z,3.00
2019-02-09T02:36:17.102Z,3.40
2019-02-09T02:38:45.806Z,3.00
2019-02-09T02:41:14.495Z,3.37
2019-02-09T02:43:43.187Z,2.67
2019-02-09T02:46:11.875Z,3.47
2019-02-09T02:48:40.506Z,2.77
2019-02-09T02:51:09.257Z,2.93
2019-02-09T02:53:37.878Z,3.40
2019-02-09T02:56:06.557Z,3.20
2019-02-09T02:58:35.180Z,2.57
2019-02-09T03:01:03.916Z,3.20
2019-02-09T03:03:32.590Z,2.90
2019-02-09T03:06:01.293Z,3.63
2019-02-09T03:08:29.998Z,3.90
2019-02-09T03:10:58.594Z,2.93
2019-02-09T03:13:27.319Z,2.57
2019-02-09T03:15:55.988Z,2.37
2019-02-09T03:18:24.950Z,2.70
2019-02-09T03:20:53.646Z,2.20
2019-02-09T03:23:22.282Z,2.13
2019-02-09T03:25:50.973Z,2.50
2019-02-09T03:28:19.646Z,2.60
2019-02-09T03:30:49.201Z,2.57
2019-02-09T03:33:18.221Z,2.63
2019-02-09T03:35:46.982Z,2.30
2019-02-09T03:38:15.683Z,2.10
2019-02-09T03:40:44.382Z,2.00
2019-02-09T03:43:12.991Z,2.40
2019-02-09T03:45:41.657Z,2.30
2019-02-09T03:48:10.290Z,2.10
2019-02-09T03:50:38.960Z,2.30
2019-02-09T03:53:07.623Z,2.37
2019-02-09T03:55:36.237Z,2.50
2019-02-09T03:58:04.962Z,2.10
2019-02-09T04:00:33.656Z,2.60
2019-02-09T04:03:02.757Z,2.20
2019-02-09T04:05:31.735Z,2.10
2019-02-09T04:08:00.443Z,1.90
2019-02-09T04:10:29.185Z,2.70
2019-02-09T04:12:57.887Z,2.13
2019-02-09T04:15:26.684Z,2.67
2019-02-09T04:17:55.377Z,1.67
2019-02-09T04:20:24.192Z,2.23
2019-02-09T04:22:52.812Z,1.97
2019-02-09T04:25:21.478Z,7.47
2019-02-09T04:27:50.263Z,2.53
2019-02-09T04:30:19.782Z,2.10
2019-02-09T04:32:48.382Z,2.33
2019-02-09T04:35:17.079Z,1.67
2019-02-09T04:37:45.767Z,1.70
2019-02-09T04:40:15.756Z,2.33
2019-02-09T04:42:44.402Z,1.53
2019-02-09T04:45:13.086Z,2.30
2019-02-09T04:47:41.762Z,1.93
2019-02-09T04:50:10.542Z,2.47
2019-02-09T04:52:39.178Z,1.80
2019-02-09T04:55:09.372Z,2.10
2019-02-09T04:57:38.079Z,2.13
2019-02-09T05:00:07.354Z,2.40
2019-02-09T05:02:35.953Z,1.83
2019-02-09T05:05:05.175Z,2.87
2019-02-09T05:07:33.789Z,3.43
2019-02-09T05:10:02.410Z,2.20
2019-02-09T05:12:31.087Z,2.40
2019-02-09T05:14:59.778Z,4.63
2019-02-09T05:17:28.445Z,1.60
2019-02-09T05:19:57.143Z,1.77
2019-02-09T05:22:25.825Z,1.57
2019-02-09T05:24:54.553Z,1.70
2019-02-09T05:27:23.158Z,1.40
2019-02-09T05:29:51.850Z,1.93
2019-02-09T05:32:20.463Z,1.90
2019-02-09T05:34:49.101Z,1.43
2019-02-09T05:37:17.812Z,1.50
2019-02-09T05:39:46.487Z,1.47
2019-02-09T05:42:15.172Z,1.63
2019-02-09T05:44:43.791Z,1.53
2019-02-09T05:47:12.467Z,1.47
2019-02-09T05:49:42.514Z,1.70
2019-02-09T05:52:11.186Z,1.70
2019-02-09T05:54:39.835Z,1.60
2019-02-09T05:57:08.497Z,1.53
2019-02-09T05:59:38.558Z,1.40
2019-02-09T06:02:07.246Z,1.47
2019-02-09T06:04:35.917Z,1.50
2019-02-09T06:07:04.533Z,1.53
2019-02-09T06:09:33.205Z,1.70
2019-02-09T06:12:01.925Z,1.30
2019-02-09T06:14:30.738Z,1.50
2019-02-09T06:16:59.333Z,1.30
2019-02-09T06:19:27.954Z,1.70
2019-02-09T06:21:56.654Z,1.53
2019-02-09T06:24:25.340Z,2.07
2019-02-09T06:26:54.056Z,1.70
2019-02-09T06:29:22.722Z,1.80
2019-02-09T06:31:51.940Z,2.00
2019-02-09T06:34:20.882Z,2.43
2019-02-09T06:36:49.552Z,2.17
2019-02-09T06:39:18.286Z,1.70
2019-02-09T06:41:47.034Z,1.50
2019-02-09T06:44:15.727Z,1.93
2019-02-09T06:46:44.607Z,2.13
2019-02-09T06:49:13.317Z,1.80
2019-02-09T06:51:42.054Z,2.00
2019-02-09T06:54:10.684Z,1.90
2019-02-09T06:56:39.399Z,2.30
2019-02-09T06:59:08.003Z,2.10
2019-02-09T07:01:36.646Z,1.90
2019-02-09T07:04:05.266Z,1.90
2019-02-09T07:06:33.897Z,1.70
2019-02-09T07:09:02.670Z,1.93
2019-02-09T07:11:31.373Z,2.87
2019-02-09T07:14:00.030Z,2.37
2019-02-09T07:16:28.701Z,2.30
2019-02-09T07:18:57.475Z,1.90
2019-02-09T07:21:26.286Z,1.70
2019-02-09T07:23:54.959Z,2.20
2019-02-09T07:26:23.799Z,2.37
2019-02-09T07:28:52.489Z,2.60
2019-02-09T07:31:21.155Z,2.30
2019-02-09T07:33:49.979Z,2.30
2019-02-09T07:36:18.912Z,2.10
2019-02-09T07:38:47.711Z,2.13
2019-02-09T07:41:16.579Z,2.50
2019-02-09T07:43:45.176Z,2.30
2019-02-09T07:46:14.355Z,2.33
2019-02-09T07:48:43.058Z,2.23
2019-02-09T07:51:11.803Z,2.70
2019-02-09T07:53:40.478Z,2.40
2019-02-09T07:56:09.285Z,2.10
2019-02-09T07:58:37.975Z,2.87
2019-02-09T08:01:06.689Z,3.07
2019-02-09T08:03:35.706Z,2.50
2019-02-09T08:06:04.443Z,2.27
2019-02-09T08:08:33.242Z,2.57
2019-02-09T08:11:09.002Z,2.67
2019-02-09T08:13:32.727Z,2.40
2019-02-09T08:16:01.395Z,2.40
2019-02-09T08:18:30.141Z,3.00
2019-02-09T08:20:58.828Z,2.73
2019-02-09T08:23:27.455Z,2.40
2019-02-09T08:25:56.190Z,2.57
2019-02-09T08:28:24.920Z,2.73
2019-02-09T08:30:53.597Z,2.40
2019-02-09T08:33:22.282Z,2.60
2019-02-09T08:35:51.389Z,2.20
2019-02-09T08:38:20.078Z,2.47
2019-02-09T08:40:48.793Z,2.50
2019-02-09T08:43:17.441Z,2.83
2019-02-09T08:45:46.574Z,2.50
2019-02-09T08:48:15.311Z,3.50
2019-02-09T08:50:48.823Z,3.07
2019-02-09T08:53:17.806Z,2.50
2019-02-09T08:55:46.514Z,3.27
2019-02-09T08:58:15.195Z,2.57
2019-02-09T09:00:43.942Z,3.07
2019-02-09T09:03:12.602Z,2.20
2019-02-09T09:05:41.206Z,2.30
2019-02-09T09:08:09.829Z,2.43
2019-02-09T09:10:38.931Z,2.67
2019-02-09T09:13:07.668Z,2.70
2019-02-09T09:15:37.664Z,2.50
2019-02-09T09:18:06.898Z,2.20
2019-02-09T09:20:36.545Z,3.90
2019-02-09T09:23:05.320Z,2.63
2019-02-09T09:25:34.291Z,2.30
2019-02-09T09:28:03.090Z,2.60
2019-02-09T09:30:31.909Z,2.60
2019-02-09T09:33:00.626Z,2.03
2019-02-09T09:35:29.406Z,2.17
2019-02-09T09:37:58.439Z,2.00
2019-02-09T09:40:31.533Z,2.33
2019-02-09T09:43:00.826Z,2.23
2019-02-09T09:45:30.603Z,1.97
2019-02-09T09:47:59.446Z,2.60
2019-02-09T09:50:28.166Z,2.13
2019-02-09T09:52:56.766Z,1.90
2019-02-09T09:55:25.469Z,2.07
2019-02-09T09:57:54.285Z,2.10
2019-02-09T10:00:23.674Z,2.17
2019-02-09T10:02:52.503Z,1.50
2019-02-09T10:05:21.197Z,2.00
2019-02-09T10:07:49.898Z,1.87
2019-02-09T10:10:18.726Z,1.80
2019-02-09T10:12:47.562Z,2.27
2019-02-09T10:15:17.635Z,1.43
2019-02-09T10:17:46.567Z,1.40
2019-02-09T10:23:04.903Z,1.60
2019-02-09T10:25:33.666Z,1.93
2019-02-09T10:28:02.386Z,1.30
2019-02-09T10:30:31.313Z,1.60
2019-02-09T10:32:59.914Z,1.67
2019-02-09T10:35:28.619Z,1.57
2019-02-09T10:37:57.630Z,1.67
2019-02-09T10:40:27.156Z,1.70
2019-02-09T10:42:56.423Z,1.40
2019-02-09T10:45:26.164Z,1.73
2019-02-09T10:47:55.919Z,1.33
2019-02-09T10:50:26.319Z,1.60
2019-02-09T10:52:55.256Z,1.50
2019-02-09T10:55:24.074Z,1.73
2019-02-09T10:57:52.789Z,1.50
2019-02-09T11:00:23.114Z,1.60
2019-02-09T11:02:52.348Z,1.50
2019-02-09T11:05:21.537Z,1.20
2019-02-09T11:07:50.466Z,1.50
2019-02-09T11:10:19.674Z,1.40
2019-02-09T11:12:48.946Z,1.17
2019-02-09T11:15:18.407Z,1.40
2019-02-09T11:17:47.154Z,1.63
2019-02-09T11:20:17.386Z,1.50
2019-02-09T11:22:46.117Z,0.70
2019-02-09T11:25:15.243Z,1.30
2019-02-09T11:27:43.978Z,1.40
2019-02-09T11:30:14.485Z,1.13
2019-02-09T11:32:43.439Z,1.20
2019-02-09T11:35:12.360Z,1.30
2019-02-09T11:37:41.339Z,1.30
2019-02-09T11:40:11.938Z,1.30
2019-02-09T11:42:40.714Z,1.90
2019-02-09T11:45:11.191Z,1.10
2019-02-09T11:47:40.511Z,1.50
2019-02-09T11:50:09.907Z,2.30
2019-02-09T11:52:38.747Z,1.43
2019-02-09T11:55:07.958Z,1.27
2019-02-09T11:57:37.990Z,1.23
2019-02-09T12:00:10.483Z,1.63
2019-02-09T12:02:39.342Z,1.47
2019-02-09T12:05:07.979Z,1.67
2019-02-09T12:07:36.600Z,1.33
2019-02-09T12:10:05.954Z,1.67
2019-02-09T12:12:34.694Z,1.50
2019-02-09T12:15:03.646Z,1.10
2019-02-09T12:17:32.347Z,1.67
2019-02-09T12:20:01.054Z,2.27
2019-02-09T12:22:29.698Z,3.90
2019-02-09T12:24:58.852Z,2.37
2019-02-09T12:27:27.798Z,2.00
2019-02-09T12:29:58.339Z,1.67
2019-02-09T12:32:27.260Z,1.10
2019-02-09T12:34:55.874Z,1.43
2019-02-09T12:37:24.571Z,1.10
2019-02-09T12:39:53.321Z,1.20
2019-02-09T12:42:22.214Z,0.93
2019-02-09T12:44:51.045Z,1.50
2019-02-09T12:47:20.135Z,1.50
2019-02-09T12:49:48.864Z,0.70
2019-02-09T12:52:17.543Z,1.10
2019-02-09T12:54:49.380Z,1.30
2019-02-09T12:57:18.050Z,1.10
2019-02-09T12:59:49.535Z,1.00
2019-02-09T13:02:18.203Z,1.87
2019-02-09T13:04:47.556Z,1.53
2019-02-09T13:07:22.381Z,1.17
2019-02-09T13:09:51.137Z,1.43
2019-02-09T13:12:19.743Z,1.03
2019-02-09T13:14:48.417Z,1.17
2019-02-09T13:17:17.502Z,1.20
2019-02-09T13:19:46.162Z,1.77
2019-02-09T13:22:14.808Z,1.70
2019-02-09T13:24:43.460Z,1.43
2019-02-09T13:27:12.067Z,1.80
2019-02-09T13:29:40.918Z,1.87
2019-02-09T13:32:09.617Z,1.30
2019-02-09T13:34:38.348Z,1.83
2019-02-09T13:37:07.034Z,1.60
2019-02-09T13:39:35.719Z,1.70
2019-02-09T13:42:04.496Z,1.60
2019-02-09T13:44:33.134Z,1.17
2019-02-09T13:47:02.054Z,1.23
2019-02-09T13:49:30.746Z,1.53
2019-02-09T13:51:59.447Z,1.30
2019-02-09T13:54:28.088Z,1.73
2019-02-09T13:56:56.814Z,1.60
2019-02-09T13:59:25.530Z,1.40
2019-02-09T14:01:54.208Z,2.37
2019-02-09T14:04:22.965Z,1.17
2019-02-09T14:06:51.661Z,1.13
2019-02-09T14:09:20.393Z,1.87
2019-02-09T14:11:49.330Z,2.70
2019-02-09T14:14:18.066Z,2.03
2019-02-09T14:16:46.750Z,1.90
2019-02-09T14:19:15.462Z,2.57
2019-02-09T14:21:44.086Z,2.30
2019-02-09T14:24:12.765Z,1.10
2019-02-09T14:26:41.421Z,1.63
2019-02-09T14:29:10.166Z,1.63
2019-02-09T14:31:38.871Z,1.83
2019-02-09T14:34:07.565Z,1.43
2019-02-09T14:36:36.502Z,3.00
2019-02-09T14:39:09.093Z,2.00
2019-02-09T14:41:37.806Z,2.50
2019-02-09T14:44:06.487Z,1.47
2019-02-09T14:46:35.104Z,1.23
2019-02-09T14:49:03.854Z,2.10
2019-02-09T14:51:32.590Z,1.70
2019-02-09T14:54:01.258Z,1.53
2019-02-09T14:56:29.886Z,1.73
2019-02-09T14:58:58.518Z,1.00
2019-02-09T15:01:27.193Z,1.43
2019-02-09T15:04:02.634Z,1.70
2019-02-09T15:06:26.302Z,2.20
2019-02-09T15:08:55.004Z,1.47
2019-02-09T15:11:23.614Z,1.70
2019-02-09T15:13:52.302Z,1.63
2019-02-09T15:16:32.994Z,1.43
2019-02-09T15:19:01.816Z,1.37
2019-02-09T15:21:30.873Z,1.90
2019-02-09T15:23:59.622Z,1.20
2019-02-09T15:26:28.243Z,1.70
2019-02-09T15:28:58.936Z,1.43
2019-02-09T15:31:27.638Z,1.47
2019-02-09T15:33:56.736Z,3.47
2019-02-09T15:36:25.429Z,1.70
2019-02-09T15:38:54.198Z,1.80
2019-02-09T15:41:22.893Z,1.53
2019-02-09T15:43:51.521Z,1.27
2019-02-09T15:46:20.182Z,2.13
2019-02-09T15:48:48.786Z,1.83
2019-02-09T15:51:17.863Z,1.47
2019-02-09T15:53:46.593Z,1.83
2019-02-09T15:56:15.270Z,1.60
2019-02-09T15:58:43.967Z,1.63
2019-02-09T16:01:12.919Z,1.53
2019-02-09T16:03:41.763Z,1.17
2019-02-09T16:06:10.408Z,1.50
2019-02-09T16:08:39.375Z,2.10
2019-02-09T16:11:08.238Z,1.87
2019-02-09T16:13:37.131Z,3.27
2019-02-09T16:16:06.336Z,2.33
2019-02-09T16:18:35.175Z,1.97
2019-02-09T16:21:04.065Z,1.40
2019-02-09T16:23:32.919Z,1.90
2019-02-09T16:26:01.788Z,1.30
2019-02-09T16:28:30.686Z,1.97
2019-02-09T16:30:59.476Z,1.67
2019-02-09T16:33:28.146Z,1.17
2019-02-09T16:35:56.971Z,1.57
2019-02-09T16:38:25.708Z,1.17
2019-02-09T16:40:54.461Z,1.10
2019-02-09T16:43:23.355Z,2.03
2019-02-09T16:45:52.329Z,2.30
2019-02-09T16:48:21.119Z,2.20
2019-02-09T16:50:49.981Z,1.87
2019-02-09T16:53:18.684Z,2.23
2019-02-09T16:55:47.559Z,1.93
2019-02-09T16:58:16.222Z,1.77
2019-02-09T17:00:44.982Z,1.83
2019-02-09T17:03:13.770Z,1.73
2019-02-09T17:05:42.710Z,1.90
2019-02-09T17:08:11.769Z,2.10
2019-02-09T17:10:40.523Z,2.17
2019-02-09T17:13:09.294Z,3.90
2019-02-09T17:15:39.790Z,2.87
2019-02-09T17:18:08.611Z,1.80
2019-02-09T17:20:37.561Z,1.90
2019-02-09T17:23:06.453Z,1.70
2019-02-09T17:25:35.226Z,2.63
2019-02-09T17:28:04.455Z,2.43
2019-02-09T17:30:33.205Z,1.70
2019-02-09T17:33:02.124Z,1.27
2019-02-09T17:35:30.742Z,1.60
2019-02-09T17:37:59.439Z,1.90
2019-02-09T17:40:29.445Z,1.67
2019-02-09T17:42:58.113Z,1.90
2019-02-09T17:45:28.282Z,1.90
2019-02-09T17:47:57.006Z,2.57
2019-02-09T17:50:25.758Z,1.70
2019-02-09T17:52:54.531Z,1.63
2019-02-09T17:55:23.426Z,1.77
2019-02-09T17:57:52.208Z,1.40
2019-02-09T18:00:24.770Z,1.83
2019-02-09T18:02:53.549Z,2.30
2019-02-09T18:05:22.417Z,2.00
2019-02-09T18:07:51.218Z,1.97
2019-02-09T18:10:20.453Z,1.73
2019-02-09T18:12:49.195Z,1.80
2019-02-09T18:15:17.985Z,1.70
2019-02-09T18:17:47.079Z,1.57
2019-02-09T18:20:15.900Z,2.00
2019-02-09T18:22:45.041Z,1.37
2019-02-09T18:25:15.054Z,1.50
2019-02-09T18:27:43.723Z,1.40
2019-02-09T18:30:14.699Z,2.33
2019-02-09T18:32:43.484Z,1.73
2019-02-09T18:35:12.484Z,1.47
2019-02-09T18:37:41.265Z,1.80
2019-02-09T18:40:11.600Z,2.00
2019-02-09T18:42:40.380Z,1.73
2019-02-09T18:45:09.973Z,1.87
2019-02-09T18:47:38.667Z,1.40
2019-02-09T18:50:08.377Z,1.83
2019-02-09T18:52:37.349Z,1.90
2019-02-09T18:55:06.254Z,1.87
2019-02-09T18:57:34.846Z,1.20
2019-02-09T19:00:04.253Z,1.67
2019-02-09T19:02:38.386Z,1.70
2019-02-09T19:05:04.442Z,1.80
2019-02-09T19:07:33.451Z,1.70
2019-02-09T19:10:02.097Z,1.73
2019-02-09T19:12:30.834Z,1.37
2019-02-09T19:14:59.445Z,2.00
2019-02-09T19:17:28.161Z,2.00
2019-02-09T19:19:56.808Z,1.87
2019-02-09T19:22:26.894Z,1.87
2019-02-09T19:24:55.800Z,2.30
2019-02-09T19:27:24.746Z,2.13
2019-02-09T19:29:53.465Z,2.03
2019-02-09T19:32:22.109Z,1.80
2019-02-09T19:34:50.805Z,2.50
2019-02-09T19:37:19.447Z,1.67
2019-02-09T19:39:48.117Z,2.17
2019-02-09T19:42:16.709Z,1.90
2019-02-09T19:44:45.397Z,3.40
2019-02-09T19:47:14.071Z,1.43
2019-02-09T19:49:42.657Z,1.93
2019-02-09T19:52:11.274Z,1.70
2019-02-09T19:54:39.877Z,1.70
2019-02-09T19:57:08.582Z,1.70
2019-02-09T19:59:37.269Z,1.60
2019-02-09T20:02:06.021Z,2.03
2019-02-09T20:04:34.765Z,1.50
2019-02-09T20:07:03.421Z,1.50
2019-02-09T20:09:32.208Z,1.73
2019-02-09T20:12:00.937Z,1.70
2019-02-09T20:14:29.706Z,1.90
2019-02-09T20:16:58.655Z,2.50
2019-02-09T20:19:27.329Z,1.57
2019-02-09T20:21:56.697Z,1.77
2019-02-09T20:24:25.575Z,2.00
2019-02-09T20:26:54.197Z,1.83
2019-02-09T20:29:22.872Z,1.60
2019-02-09T20:31:51.482Z,1.93
2019-02-09T20:34:20.162Z,1.57
2019-02-09T20:36:48.786Z,1.90
2019-02-09T20:39:17.394Z,1.57
2019-02-09T20:41:46.013Z,1.77
2019-02-09T20:44:14.702Z,1.90
2019-02-09T20:46:43.426Z,1.33
2019-02-09T20:49:12.080Z,1.50
2019-02-09T20:51:40.862Z,1.80
2019-02-09T20:54:09.658Z,2.00
2019-02-09T20:56:39.177Z,1.67
2019-02-09T20:59:07.815Z,1.80
2019-02-09T21:01:36.478Z,2.00
2019-02-09T21:04:05.198Z,2.47
2019-02-09T21:06:33.905Z,1.77
2019-02-09T21:09:03.568Z,1.37
2019-02-09T21:11:32.198Z,1.73
2019-02-09T21:14:00.987Z,1.57
2019-02-09T21:16:30.019Z,1.40
2019-02-09T21:18:58.910Z,1.70
2019-02-09T21:21:27.622Z,1.53
2019-02-09T21:23:56.246Z,1.57
2019-02-09T21:26:24.891Z,1.63
2019-02-09T21:28:53.491Z,1.83
2019-02-09T21:31:22.166Z,1.70
2019-02-09T21:33:50.817Z,1.70
2019-02-09T21:36:19.490Z,1.50
2019-02-09T21:38:48.174Z,1.90
2019-02-09T21:41:17.086Z,1.70
2019-02-09T21:43:45.677Z,1.60
2019-02-09T21:46:14.350Z,1.47
2019-02-09T21:48:43.006Z,1.57
2019-02-09T21:51:11.606Z,1.57
2019-02-09T21:53:40.273Z,1.70
2019-02-09T21:56:08.998Z,1.87
2019-02-09T21:58:37.622Z,1.87
2019-02-09T22:01:06.306Z,1.60
2019-02-09T22:03:34.936Z,1.37
2019-02-09T22:06:06.590Z,1.87
2019-02-09T22:08:35.212Z,2.07
2019-02-09T22:11:04.011Z,2.00
2019-02-09T22:13:32.756Z,1.93
2019-02-09T22:16:01.648Z,1.73
2019-02-09T22:18:30.422Z,1.77
2019-02-09T22:20:59.237Z,1.90
2019-02-09T22:23:27.922Z,1.90
2019-02-09T22:25:56.537Z,1.80
2019-02-09T22:28:25.166Z,2.17
2019-02-09T22:30:55.118Z,1.67
2019-02-09T22:33:24.961Z,1.90
2019-02-09T22:35:59.850Z,1.50
2019-02-09T22:38:24.121Z,1.90
2019-02-09T22:40:52.791Z,2.30
2019-02-09T22:43:21.511Z,1.90
2019-02-09T22:45:50.170Z,2.07
2019-02-09T22:48:18.805Z,1.70
2019-02-09T22:50:47.435Z,2.00
2019-02-09T22:53:16.046Z,1.97
2019-02-09T22:55:44.644Z,1.87
2019-02-09T22:58:13.317Z,1.80
2019-02-09T23:00:55.250Z,1.70
2019-02-09T23:03:34.862Z,1.80
2019-02-09T23:06:31.622Z,1.80
2019-02-09T23:09:00.278Z,1.70
2019-02-09T23:11:28.911Z,2.00
2019-02-09T23:13:57.579Z,1.80
2019-02-09T23:16:26.279Z,1.97
2019-02-09T23:18:54.902Z,2.10
2019-02-09T23:21:23.489Z,1.90
2019-02-09T23:23:52.090Z,1.53
2019-02-09T23:26:21.019Z,1.40
2019-02-09T23:28:49.618Z,1.80
2019-02-09T23:31:18.229Z,2.10
2019-02-09T23:33:46.859Z,1.20
2019-02-09T23:36:16.620Z,1.70
2019-02-09T23:38:45.414Z,1.77
2019-02-09T23:41:14.046Z,1.47
2019-02-09T23:43:42.633Z,1.80
2019-02-09T23:46:11.288Z,1.53
2019-02-09T23:48:39.906Z,1.90
2019-02-09T23:51:08.502Z,1.37
2019-02-09T23:53:37.117Z,1.40
2019-02-09T23:56:05.715Z,1.80
2019-02-09T23:58:34.318Z,1.63
